< < Back
Terminal Aerodrome Forecast


Current Version              Previous Versions:   1  2  3  4  5  6  7  8  9  

Terminal Aerodrome Forecast

729
FTUS42 KFFC 271303 AAA
TAFMCN
TAF AMD
KMCN 271303Z 2713/2812 12003KT 2SM BR OVC002
     FM271400 VRB03KT 4SM BR BKN008
     FM271600 14007KT P6SM VCSH BKN025
     FM272000 17006KT 6SM -SHRA BR BKN035
      TEMPO 2721/2724 3SM -TSRA BKN015CB
     FM280000 VRB03KT P6SM BKN040
     FM280500 VRB03KT P6SM SCT020 BKN080=

Latest METAR

824
SAUS80 KWBC 271400
MTRMCN
METAR KMCN 271353Z 11004KT 10SM OVC006 22/20 A3026 RMK AO2 SLP242
T02170200


USA.gov is the U.S. government's official web portal to all federal, state and local government web resources and services.